Time,TemperatureF,DewpointF,PressureIn,WindDirection,WindDirectionDegrees,WindSpeedMPH,WindSpeedGustMPH,Humidity,HourlyPrecipIn,Conditions,Clouds,dailyrainin,SolarRadiationWatts/m^2,SoftwareType,DateUTC
2013-03-21 00:02:00,33.0,31.0,-100.00,ENE,71,8.0,9.0,92,-99.99,,,-99.99,0.090000,,2013-03-21 06:02:00,
2013-03-21 00:12:00,34.0,32.0,-100.00,NE,56,8.0,11.0,92,-99.99,,,-99.99,0.120000,,2013-03-21 06:12:00,
2013-03-21 00:22:00,34.0,31.0,-100.00,ENE,75,6.0,9.0,91,-99.99,,,-99.99,0.070000,,2013-03-21 06:22:00,
2013-03-21 00:32:00,33.0,31.0,-100.00,ENE,74,4.0,6.0,91,-99.99,,,-99.99,0.120000,,2013-03-21 06:32:00,
2013-03-21 00:42:00,33.0,31.0,-100.00,ENE,63,3.0,5.0,92,-99.99,,,-99.99,0.140000,,2013-03-21 06:42:00,
2013-03-21 00:52:00,33.0,31.0,-100.00,East,81,7.0,8.0,92,-99.99,,,-99.99,0.100000,,2013-03-21 06:52:00,
2013-03-21 01:02:00,34.0,31.0,-100.00,East,90,1.0,9.0,91,-99.99,,,-99.99,0.100000,,2013-03-21 07:02:00,
2013-03-21 01:12:00,33.0,31.0,-100.00,NE,52,6.0,6.0,92,-99.99,,,-99.99,0.090000,,2013-03-21 07:12:00,
2013-03-21 01:21:00,33.0,31.0,-100.00,NE,47,5.0,6.0,92,-99.99,,,-99.99,0.110000,,2013-03-21 07:21:00,
2013-03-21 01:32:00,34.0,32.0,-100.00,NE,44,6.0,7.0,92,-99.99,,,-99.99,0.120000,,2013-03-21 07:32:00,
2013-03-21 01:42:00,34.0,31.0,-100.00,ENE,69,8.0,9.0,90,-99.99,,,-99.99,0.090000,,2013-03-21 07:42:00,
2013-03-21 01:52:00,34.0,31.0,-100.00,East,82,5.0,10.0,89,-99.99,,,-99.99,0.050000,,2013-03-21 07:52:00,
2013-03-21 02:01:00,34.0,31.0,-100.00,ENE,69,7.0,11.0,89,-99.99,,,-99.99,0.020000,,2013-03-21 08:01:00,
2013-03-21 02:12:00,34.0,31.0,-100.00,ENE,70,9.0,13.0,89,-99.99,,,-99.99,0.070000,,2013-03-21 08:12:00,
2013-03-21 02:22:00,35.0,32.0,-100.00,ENE,69,5.0,9.0,87,-99.99,,,-99.99,0.030000,,2013-03-21 08:22:00,
2013-03-21 02:32:00,37.0,30.0,-100.00,West,269,9.0,16.0,76,-99.99,,,-99.99,0.020000,,2013-03-21 08:32:00,
2013-03-21 02:42:00,40.0,29.0,-100.00,WSW,244,16.0,29.0,62,-99.99,,,-99.99,0.010000,,2013-03-21 08:42:00,
2013-03-21 02:52:00,41.0,27.0,-100.00,SW,227,25.0,31.0,57,-99.99,,,-99.99,0.010000,,2013-03-21 08:52:00,
2013-03-21 03:01:00,41.0,27.0,-100.00,SW,223,24.0,35.0,58,-99.99,,,-99.99,0.000000,,2013-03-21 09:01:00,
2013-03-21 03:11:00,39.0,28.0,-100.00,SW,236,18.0,42.0,63,-99.99,,,-99.99,0.000000,,2013-03-21 09:11:00,
2013-03-21 03:21:00,39.0,28.0,-100.00,SW,236,18.0,42.0,63,-99.99,,,-99.99,0.000000,,2013-03-21 09:21:00,
2013-03-21 03:33:00,40.0,28.0,-100.00,WSW,253,23.0,31.0,63,-99.99,,,-99.99,0.000000,,2013-03-21 09:33:00,
2013-03-21 03:43:00,36.0,31.0,-100.00,WSW,256,19.0,27.0,81,-99.99,,,-99.99,0.010000,,2013-03-21 09:43:00,
2013-03-21 03:53:00,36.0,31.0,-100.00,WSW,256,19.0,27.0,81,-99.99,,,-99.99,0.010000,,2013-03-21 09:53:00,
2013-03-21 04:02:00,35.0,31.0,-100.00,WSW,248,13.0,26.0,85,-99.99,,,-99.99,0.000000,,2013-03-21 10:02:00,
2013-03-21 04:12:00,35.0,31.0,-100.00,WSW,255,16.0,26.0,88,-99.99,,,-99.99,0.010000,,2013-03-21 10:12:00,
2013-03-21 04:22:00,34.0,32.0,-100.00,SW,232,19.0,25.0,90,-99.99,,,-99.99,0.010000,,2013-03-21 10:22:00,
2013-03-21 04:42:00,35.0,32.0,-100.00,West,260,17.0,26.0,89,-99.99,,,-99.99,0.050000,,2013-03-21 10:42:00,
2013-03-21 04:52:00,34.0,32.0,-100.00,WSW,256,14.0,22.0,89,-99.99,,,-99.99,0.040000,,2013-03-21 10:52:00,
2013-03-21 05:02:00,33.0,31.0,-100.00,WSW,246,19.0,26.0,92,-99.99,,,-99.99,0.130000,,2013-03-21 11:02:00,
2013-03-21 05:12:00,33.0,31.0,-100.00,WSW,246,19.0,26.0,92,-99.99,,,-99.99,0.130000,,2013-03-21 11:12:00,
2013-03-21 05:22:00,34.0,32.0,-100.00,WSW,247,14.0,24.0,92,-99.99,,,-99.99,0.110000,,2013-03-21 11:22:00,
2013-03-21 05:32:00,33.0,31.0,-100.00,West,261,19.0,26.0,90,-99.99,,,-99.99,0.110000,,2013-03-21 11:32:00,
2013-03-21 05:42:00,33.0,31.0,-100.00,West,261,19.0,26.0,90,-99.99,,,-99.99,0.110000,,2013-03-21 11:42:00,
2013-03-21 05:52:00,31.0,30.0,-100.00,SW,234,20.0,26.0,93,-99.99,,,-99.99,0.130000,,2013-03-21 11:52:00,
2013-03-21 06:01:00,31.0,30.0,-100.00,SW,229,18.0,23.0,94,-99.99,,,-99.99,0.160000,,2013-03-21 12:01:00,
2013-03-21 06:12:00,31.0,30.0,-100.00,SW,229,18.0,23.0,94,-99.99,,,-99.99,0.160000,,2013-03-21 12:12:00,
2013-03-21 06:22:00,31.0,30.0,-100.00,SW,231,17.0,23.0,95,-99.99,,,-99.99,0.140000,,2013-03-21 12:22:00,
2013-03-21 06:32:00,30.0,29.0,-100.00,SW,230,19.0,24.0,95,-99.99,,,-99.99,0.140000,,2013-03-21 12:32:00,
2013-03-21 06:41:00,28.0,27.0,-100.00,WSW,255,19.0,27.0,95,-99.99,,,-99.99,0.120000,,2013-03-21 12:41:00,
2013-03-21 06:52:00,28.0,27.0,-100.00,WSW,255,19.0,27.0,95,-99.99,,,-99.99,0.120000,,2013-03-21 12:52:00,
2013-03-21 07:02:00,27.0,26.0,-100.00,WSW,244,22.0,28.0,95,-99.99,,,-99.99,0.160000,,2013-03-21 13:02:00,
2013-03-21 07:12:00,26.0,25.0,-100.00,SW,231,24.0,30.0,95,-99.99,,,-99.99,0.170000,,2013-03-21 13:12:00,
2013-03-21 07:21:00,25.0,24.0,-100.00,SW,236,24.0,35.0,95,-99.99,,,-99.99,0.040000,,2013-03-21 13:21:00,
2013-03-21 07:32:00,24.0,23.0,-100.00,SW,233,26.0,34.0,94,-99.99,,,-99.99,0.050000,,2013-03-21 13:32:00,
2013-03-21 07:42:00,25.0,23.0,-100.00,SW,235,17.0,26.0,94,-99.99,,,-99.99,0.140000,,2013-03-21 13:42:00,
2013-03-21 07:52:00,24.0,23.0,-100.00,SW,233,20.0,25.0,94,-99.99,,,-99.99,0.230000,,2013-03-21 13:52:00,
2013-03-21 08:02:00,24.0,23.0,-100.00,SW,233,21.0,27.0,94,-99.99,,,-99.99,0.450000,,2013-03-21 14:02:00,
2013-03-21 08:11:00,24.0,22.0,-100.00,SW,235,22.0,27.0,94,-99.99,,,-99.99,0.710000,,2013-03-21 14:11:00,
2013-03-21 08:21:00,24.0,22.0,-100.00,SW,231,21.0,27.0,94,-99.99,,,-99.99,2.120000,,2013-03-21 14:21:00,
2013-03-21 08:32:00,23.0,22.0,-100.00,SW,227,15.0,25.0,94,-99.99,,,-99.99,5.670000,,2013-03-21 14:32:00,
2013-03-21 08:42:00,23.0,22.0,-100.00,SW,236,21.0,25.0,94,-99.99,,,-99.99,10.770000,,2013-03-21 14:42:00,
2013-03-21 08:52:00,23.0,21.0,-100.00,SW,233,18.0,28.0,94,-99.99,,,-99.99,30.559999,,2013-03-21 14:52:00,
2013-03-21 09:02:00,22.0,21.0,-100.00,WSW,239,15.0,28.0,93,-99.99,,,-99.99,34.939999,,2013-03-21 15:02:00,
2013-03-21 09:12:00,22.0,21.0,-100.00,WSW,241,19.0,26.0,93,-99.99,,,-99.99,78.599998,,2013-03-21 15:12:00,
2013-03-21 09:22:00,22.0,21.0,-100.00,WSW,246,16.0,22.0,93,-99.99,,,-99.99,177.800003,,2013-03-21 15:22:00,
2013-03-21 09:32:00,23.0,21.0,-100.00,WSW,250,16.0,26.0,93,-99.99,,,-99.99,302.000000,,2013-03-21 15:32:00,
2013-03-21 09:42:00,23.0,22.0,-100.00,SW,235,13.0,20.0,93,-99.99,,,-99.99,237.300003,,2013-03-21 15:42:00,
2013-03-21 09:52:00,23.0,22.0,-100.00,SW,233,19.0,23.0,93,-99.99,,,-99.99,295.799988,,2013-03-21 15:52:00,
2013-03-21 10:03:00,23.0,22.0,-100.00,SW,228,17.0,23.0,94,-99.99,,,-99.99,213.000000,,2013-03-21 16:03:00,
2013-03-21 10:12:00,23.0,22.0,-100.00,WSW,247,16.0,22.0,94,-99.99,,,-99.99,139.800003,,2013-03-21 16:12:00,
2013-03-21 10:22:00,23.0,21.0,-100.00,SW,233,17.0,24.0,94,-99.99,,,-99.99,199.899994,,2013-03-21 16:22:00,
2013-03-21 10:32:00,23.0,22.0,-100.00,WSW,246,19.0,25.0,94,-99.99,,,-99.99,139.100006,,2013-03-21 16:32:00,
2013-03-21 10:42:00,23.0,21.0,-100.00,WSW,248,15.0,25.0,93,-99.99,,,-99.99,203.500000,,2013-03-21 16:42:00,
2013-03-21 10:52:00,22.0,21.0,-100.00,WSW,249,16.0,22.0,93,-99.99,,,-99.99,79.769997,,2013-03-21 16:52:00,
2013-03-21 11:02:00,22.0,21.0,-100.00,SW,234,17.0,23.0,93,-99.99,,,-99.99,89.300003,,2013-03-21 17:02:00,
2013-03-21 11:12:00,22.0,20.0,-100.00,WSW,238,16.0,21.0,93,-99.99,,,-99.99,112.500000,,2013-03-21 17:12:00,
2013-03-21 11:22:00,22.0,20.0,-100.00,SW,236,19.0,27.0,93,-99.99,,,-99.99,199.199997,,2013-03-21 17:22:00,
2013-03-21 11:32:00,22.0,20.0,-100.00,WSW,239,20.0,24.0,93,-99.99,,,-99.99,207.100006,,2013-03-21 17:32:00,
2013-03-21 11:42:00,23.0,21.0,-100.00,WSW,244,18.0,23.0,93,-99.99,,,-99.99,461.399994,,2013-03-21 17:42:00,
2013-03-21 11:52:00,23.0,21.0,-100.00,SW,231,22.0,27.0,92,-99.99,,,-99.99,416.899994,,2013-03-21 17:52:00,
2013-03-21 12:02:00,23.0,21.0,-100.00,SW,229,22.0,28.0,92,-99.99,,,-99.99,450.799988,,2013-03-21 18:02:00,
2013-03-21 12:11:00,23.0,21.0,-100.00,SW,231,23.0,27.0,92,-99.99,,,-99.99,667.500000,,2013-03-21 18:11:00,
2013-03-21 12:22:00,23.0,21.0,-100.00,SW,236,23.0,28.0,92,-99.99,,,-99.99,500.000000,,2013-03-21 18:22:00,
2013-03-21 12:32:00,23.0,22.0,-100.00,SW,224,23.0,27.0,93,-99.99,,,-99.99,451.600006,,2013-03-21 18:32:00,
2013-03-21 12:42:00,23.0,22.0,-100.00,SW,234,20.0,29.0,93,-99.99,,,-99.99,438.299988,,2013-03-21 18:42:00,
2013-03-21 12:52:00,23.0,21.0,-100.00,SW,230,22.0,29.0,93,-99.99,,,-99.99,554.900024,,2013-03-21 18:52:00,
2013-03-21 13:02:00,23.0,21.0,-100.00,SW,228,25.0,31.0,92,-99.99,,,-99.99,743.900024,,2013-03-21 19:02:00,
2013-03-21 13:12:00,23.0,21.0,-100.00,SW,226,29.0,33.0,92,-99.99,,,-99.99,748.500000,,2013-03-21 19:12:00,
2013-03-21 13:22:00,23.0,21.0,-100.00,SW,234,25.0,31.0,91,-99.99,,,-99.99,895.000000,,2013-03-21 19:22:00,
2013-03-21 13:31:00,24.0,21.0,-100.00,SW,225,23.0,30.0,90,-99.99,,,-99.99,776.599976,,2013-03-21 19:31:00,
2013-03-21 13:42:00,24.0,21.0,-100.00,SW,229,21.0,29.0,89,-99.99,,,-99.99,802.000000,,2013-03-21 19:42:00,
2013-03-21 13:52:00,24.0,21.0,-100.00,SW,226,19.0,27.0,89,-99.99,,,-99.99,579.400024,,2013-03-21 19:52:00,
2013-03-21 14:02:00,23.0,21.0,-100.00,SW,236,20.0,26.0,90,-99.99,,,-99.99,506.000000,,2013-03-21 20:02:00,
2013-03-21 14:12:00,23.0,21.0,-100.00,SW,232,21.0,27.0,91,-99.99,,,-99.99,479.100006,,2013-03-21 20:12:00,
2013-03-21 14:22:00,24.0,22.0,-100.00,SW,224,23.0,30.0,91,-99.99,,,-99.99,646.400024,,2013-03-21 20:22:00,
2013-03-21 14:32:00,24.0,21.0,-100.00,SW,228,23.0,29.0,87,-99.99,,,-99.99,897.000000,,2013-03-21 20:32:00,
2013-03-21 14:42:00,23.0,20.0,-100.00,SW,230,25.0,30.0,88,-99.99,,,-99.99,454.700012,,2013-03-21 20:42:00,
2013-03-21 14:52:00,23.0,21.0,-100.00,SW,232,22.0,30.0,88,-99.99,,,-99.99,356.399994,,2013-03-21 20:52:00,
2013-03-21 15:01:00,24.0,21.0,-100.00,SW,225,22.0,28.0,87,-99.99,,,-99.99,550.099976,,2013-03-21 21:01:00,
2013-03-21 15:12:00,24.0,20.0,-100.00,SW,227,22.0,28.0,84,-99.99,,,-99.99,681.599976,,2013-03-21 21:12:00,
2013-03-21 15:22:00,25.0,20.0,-100.00,SW,228,22.0,29.0,80,-99.99,,,-99.99,684.200012,,2013-03-21 21:22:00,
2013-03-21 15:32:00,25.0,19.0,-100.00,SW,224,23.0,30.0,77,-99.99,,,-99.99,403.500000,,2013-03-21 21:32:00,
2013-03-21 15:43:00,26.0,18.0,-100.00,SW,229,24.0,30.0,72,-99.99,,,-99.99,737.900024,,2013-03-21 21:43:00,
2013-03-21 15:52:00,26.0,18.0,-100.00,SW,226,24.0,32.0,69,-99.99,,,-99.99,802.000000,,2013-03-21 21:52:00,
2013-03-21 16:02:00,26.0,16.0,-100.00,SW,224,23.0,31.0,63,-99.99,,,-99.99,777.799988,,2013-03-21 22:02:00,
2013-03-21 16:12:00,27.0,14.0,-100.00,WSW,238,20.0,32.0,57,-99.99,,,-99.99,806.000000,,2013-03-21 22:12:00,
2013-03-21 16:22:00,27.0,14.0,-100.00,SW,224,22.0,29.0,56,-99.99,,,-99.99,771.900024,,2013-03-21 22:22:00,
2013-03-21 16:33:00,27.0,12.0,-100.00,SW,230,21.0,28.0,53,-99.99,,,-99.99,730.299988,,2013-03-21 22:33:00,
2013-03-21 16:42:00,28.0,15.0,-100.00,WSW,241,18.0,27.0,58,-99.99,,,-99.99,697.099976,,2013-03-21 22:42:00,
2013-03-21 16:52:00,27.0,13.0,-100.00,SW,236,22.0,28.0,54,-99.99,,,-99.99,652.299988,,2013-03-21 22:52:00,
2013-03-21 17:02:00,27.0,13.0,-100.00,SW,234,21.0,28.0,55,-99.99,,,-99.99,585.000000,,2013-03-21 23:02:00,
2013-03-21 17:12:00,26.0,12.0,-100.00,SW,230,19.0,23.0,54,-99.99,,,-99.99,412.799988,,2013-03-21 23:12:00,
2013-03-21 17:21:00,28.0,12.0,-100.00,SW,231,15.0,24.0,51,-99.99,,,-99.99,618.000000,,2013-03-21 23:21:00,
2013-03-21 17:32:00,27.0,11.0,-100.00,SW,229,19.0,24.0,49,-99.99,,,-99.99,479.500000,,2013-03-21 23:32:00,
2013-03-21 17:42:00,28.0,11.0,-100.00,SW,222,19.0,22.0,49,-99.99,,,-99.99,556.500000,,2013-03-21 23:42:00,
2013-03-21 17:52:00,28.0,8.0,-100.00,WSW,251,17.0,23.0,41,-99.99,,,-99.99,503.000000,,2013-03-21 23:52:00,
2013-03-21 18:02:00,28.0,11.0,-100.00,WSW,243,14.0,30.0,50,-99.99,,,-99.99,402.200012,,2013-03-22 00:02:00,
2013-03-21 18:12:00,27.0,10.0,-100.00,SW,232,15.0,24.0,47,-99.99,,,-99.99,349.700012,,2013-03-22 00:12:00,
2013-03-21 18:22:00,27.0,9.0,-100.00,WSW,255,14.0,23.0,45,-99.99,,,-99.99,308.200012,,2013-03-22 00:22:00,
2013-03-21 18:31:00,28.0,8.0,-100.00,WSW,247,15.0,20.0,43,-99.99,,,-99.99,325.700012,,2013-03-22 00:31:00,
2013-03-21 18:42:00,28.0,8.0,-100.00,WSW,247,15.0,20.0,43,-99.99,,,-99.99,325.700012,,2013-03-22 00:42:00,
2013-03-21 18:52:00,27.0,8.0,-100.00,SW,233,14.0,21.0,42,-99.99,,,-99.99,256.200012,,2013-03-22 00:52:00,
2013-03-21 19:02:00,27.0,9.0,-100.00,SW,231,14.0,21.0,46,-99.99,,,-99.99,220.800003,,2013-03-22 01:02:00,
2013-03-21 19:12:00,27.0,10.0,-100.00,SW,236,16.0,19.0,47,-99.99,,,-99.99,186.800003,,2013-03-22 01:12:00,
2013-03-21 19:21:00,26.0,8.0,-100.00,WSW,248,15.0,20.0,45,-99.99,,,-99.99,152.899994,,2013-03-22 01:21:00,
2013-03-21 19:32:00,26.0,8.0,-100.00,WSW,245,14.0,21.0,46,-99.99,,,-99.99,113.199997,,2013-03-22 01:32:00,
2013-03-21 19:42:00,25.0,8.0,-100.00,WSW,245,12.0,22.0,47,-99.99,,,-99.99,59.310001,,2013-03-22 01:42:00,
2013-03-21 19:52:00,25.0,7.0,-100.00,West,261,10.0,15.0,46,-99.99,,,-99.99,24.670000,,2013-03-22 01:52:00,
2013-03-21 20:02:00,24.0,8.0,-100.00,SW,235,8.0,13.0,49,-99.99,,,-99.99,9.260000,,2013-03-22 02:02:00,
2013-03-21 20:12:00,23.0,9.0,-100.00,West,260,8.0,10.0,53,-99.99,,,-99.99,1.770000,,2013-03-22 02:12:00,
2013-03-21 20:22:00,24.0,8.0,-100.00,West,270,7.0,11.0,50,-99.99,,,-99.99,0.460000,,2013-03-22 02:22:00,
2013-03-21 20:32:00,24.0,9.0,-100.00,West,268,6.0,9.0,51,-99.99,,,-99.99,0.080000,,2013-03-22 02:32:00,
2013-03-21 20:42:00,24.0,9.0,-100.00,West,268,6.0,9.0,51,-99.99,,,-99.99,0.080000,,2013-03-22 02:42:00,
2013-03-21 20:51:00,23.0,8.0,-100.00,North,0,0.0,7.0,52,-99.99,,,-99.99,0.000000,,2013-03-22 02:51:00,
2013-03-21 21:02:00,21.0,9.0,-100.00,North,0,0.0,0.0,59,-99.99,,,-99.99,0.000000,,2013-03-22 03:02:00,
2013-03-21 21:12:00,22.0,9.0,-100.00,NNW,343,4.0,4.0,58,-99.99,,,-99.99,0.000000,,2013-03-22 03:12:00,
2013-03-21 21:21:00,22.0,9.0,-100.00,WNW,293,0.0,5.0,56,-99.99,,,-99.99,0.000000,,2013-03-22 03:21:00,
2013-03-21 21:33:00,22.0,9.0,-100.00,North,0,0.0,0.0,56,-99.99,,,-99.99,0.000000,,2013-03-22 03:33:00,
2013-03-21 21:42:00,21.0,10.0,-100.00,North,0,0.0,0.0,60,-99.99,,,-99.99,0.000000,,2013-03-22 03:42:00,
2013-03-21 21:52:00,21.0,9.0,-100.00,North,0,0.0,0.0,59,-99.99,,,-99.99,0.000000,,2013-03-22 03:52:00,
2013-03-21 22:03:00,21.0,8.0,-100.00,NNW,341,3.0,4.0,55,-99.99,,,-99.99,0.000000,,2013-03-22 04:03:00,
2013-03-21 22:12:00,21.0,8.0,-100.00,NNW,341,3.0,4.0,55,-99.99,,,-99.99,0.000000,,2013-03-22 04:12:00,
2013-03-21 22:22:00,21.0,7.0,-100.00,North,0,0.0,4.0,55,-99.99,,,-99.99,0.000000,,2013-03-22 04:22:00,
2013-03-21 22:32:00,20.0,9.0,-100.00,North,0,0.0,0.0,60,-99.99,,,-99.99,0.000000,,2013-03-22 04:32:00,
2013-03-21 22:42:00,21.0,8.0,-100.00,North,0,0.0,0.0,56,-99.99,,,-99.99,0.000000,,2013-03-22 04:42:00,
2013-03-21 22:52:00,21.0,8.0,-100.00,North,0,0.0,0.0,57,-99.99,,,-99.99,0.000000,,2013-03-22 04:52:00,
2013-03-21 23:02:00,21.0,7.0,-100.00,NW,316,0.0,2.0,54,-99.99,,,-99.99,0.000000,,2013-03-22 05:02:00,
2013-03-21 23:12:00,20.0,8.0,-100.00,North,0,0.0,0.0,58,-99.99,,,-99.99,0.000000,,2013-03-22 05:12:00,
2013-03-21 23:22:00,21.0,7.0,-100.00,North,0,0.0,1.0,54,-99.99,,,-99.99,0.000000,,2013-03-22 05:22:00,
2013-03-21 23:32:00,22.0,6.0,-100.00,WNW,292,6.0,7.0,50,-99.99,,,-99.99,0.000000,,2013-03-22 05:32:00,
2013-03-21 23:42:00,22.0,6.0,-100.00,WNW,292,6.0,7.0,50,-99.99,,,-99.99,0.000000,,2013-03-22 05:42:00,
2013-03-21 23:52:00,22.0,6.0,-100.00,WNW,294,5.0,7.0,49,-99.99,,,-99.99,0.000000,,2013-03-22 05:52:00,